createdAt,value
2024-01-19T00:02:22.073Z,25.45
2024-01-19T00:05:46.189Z,23.73
2024-01-19T00:09:10.608Z,20.77
2024-01-19T00:12:37.470Z,20.62
2024-01-19T00:16:01.329Z,19.20
2024-01-19T00:19:27.041Z,19.20
2024-01-19T00:22:50.759Z,15.70
2024-01-19T00:26:14.708Z,15.30
2024-01-19T00:29:38.415Z,14.18
2024-01-19T00:33:02.622Z,14.97
2024-01-19T00:36:27.683Z,13.57
2024-01-19T00:39:51.519Z,9.77
2024-01-19T00:43:15.230Z,12.57
2024-01-19T00:46:39.982Z,6.07
2024-01-19T00:50:03.787Z,10.02
2024-01-19T00:53:29.272Z,9.45
2024-01-19T00:56:52.942Z,10.50
2024-01-19T01:00:17.682Z,14.27
2024-01-19T01:03:41.916Z,13.88
2024-01-19T01:07:06.354Z,15.25
2024-01-19T01:10:31.110Z,13.15
2024-01-19T01:13:55.115Z,11.57
2024-01-19T01:17:18.586Z,9.65
2024-01-19T01:20:42.693Z,9.35
2024-01-19T01:24:06.703Z,8.82
2024-01-19T01:27:32.600Z,6.70
2024-01-19T01:30:56.743Z,5.62
2024-01-19T01:34:20.759Z,8.30
2024-01-19T01:37:44.546Z,9.00
2024-01-19T01:41:09.034Z,7.13
2024-01-19T01:44:34.174Z,8.25
2024-01-19T01:47:58.119Z,7.90
2024-01-19T01:51:21.745Z,6.30
2024-01-19T01:54:45.639Z,5.90
2024-01-19T01:58:09.485Z,5.50
2024-01-19T02:01:35.808Z,6.65
2024-01-19T02:04:59.994Z,5.78
2024-01-19T02:08:24.462Z,6.50
2024-01-19T02:11:48.519Z,6.90
2024-01-19T02:15:21.484Z,6.68
2024-01-19T02:18:46.466Z,7.70
2024-01-19T02:22:10.702Z,6.27
2024-01-19T02:25:35.674Z,6.47
2024-01-19T02:28:59.673Z,6.62
2024-01-19T02:32:23.662Z,5.30
2024-01-19T02:35:47.588Z,6.73
2024-01-19T02:39:11.598Z,5.62
2024-01-19T02:42:37.521Z,5.18
2024-01-19T02:46:01.241Z,5.50
2024-01-19T02:49:25.393Z,6.30
2024-01-19T02:52:49.120Z,6.68
2024-01-19T02:56:13.274Z,5.20
2024-01-19T02:59:38.425Z,6.07
2024-01-19T03:03:02.213Z,6.50
2024-01-19T03:06:26.307Z,6.15
2024-01-19T03:09:50.407Z,8.80
2024-01-19T03:13:13.854Z,8.97
2024-01-19T03:16:42.976Z,5.85
2024-01-19T03:20:07.888Z,6.43
2024-01-19T03:23:31.576Z,8.65
2024-01-19T03:26:55.468Z,9.35
2024-01-19T03:30:19.890Z,8.65
2024-01-19T03:33:44.531Z,9.20
2024-01-19T03:37:08.192Z,7.83
2024-01-19T03:40:31.663Z,7.80
2024-01-19T03:43:55.752Z,4.78
2024-01-19T03:47:19.393Z,6.28
2024-01-19T03:50:44.731Z,8.20
2024-01-19T03:54:08.223Z,7.72
2024-01-19T03:57:32.296Z,7.68
2024-01-19T04:00:56.111Z,6.57
2024-01-19T04:04:20.332Z,6.65
2024-01-19T04:07:45.369Z,4.37
2024-01-19T04:11:09.509Z,6.45
2024-01-19T04:14:33.098Z,7.50
2024-01-19T04:17:57.333Z,7.37
2024-01-19T04:21:20.887Z,8.80
2024-01-19T04:24:45.967Z,7.90
2024-01-19T04:28:09.502Z,5.73
2024-01-19T04:31:33.486Z,5.25
2024-01-19T04:34:57.058Z,8.20
2024-01-19T04:38:20.915Z,4.93
2024-01-19T04:41:45.945Z,6.20
2024-01-19T04:45:10.553Z,8.20
2024-01-19T04:48:34.254Z,7.40
2024-01-19T04:51:59.172Z,6.80
2024-01-19T04:55:22.714Z,3.95
2024-01-19T04:58:48.067Z,7.72
2024-01-19T05:02:12.456Z,7.35
2024-01-19T05:05:37.017Z,7.35
2024-01-19T05:09:00.481Z,6.05
2024-01-19T05:12:24.695Z,6.12
2024-01-19T05:15:49.734Z,6.23
2024-01-19T05:19:13.447Z,6.60
2024-01-19T05:22:36.953Z,8.57
2024-01-19T05:26:01.276Z,6.82
2024-01-19T05:29:24.799Z,6.97
2024-01-19T05:32:50.464Z,5.60
2024-01-19T05:36:14.313Z,5.85
2024-01-19T05:39:38.083Z,5.22
2024-01-19T05:43:01.063Z,6.20
2024-01-19T05:46:24.408Z,5.93
2024-01-19T05:49:49.112Z,6.22
2024-01-19T05:53:12.592Z,6.95
2024-01-19T05:56:36.138Z,6.73
2024-01-19T06:00:00.346Z,8.40
2024-01-19T06:03:24.588Z,6.60
2024-01-19T06:06:50.619Z,6.72
2024-01-19T06:10:17.245Z,7.43
2024-01-19T06:13:42.141Z,6.75
2024-01-19T06:17:06.284Z,5.95
2024-01-19T06:20:30.746Z,7.37
2024-01-19T06:23:55.506Z,7.07
2024-01-19T06:27:21.092Z,6.32
2024-01-19T06:30:46.450Z,6.12
2024-01-19T06:34:10.348Z,5.45
2024-01-19T06:37:34.534Z,5.90
2024-01-19T06:41:00.166Z,4.55
2024-01-19T06:44:23.849Z,5.55
2024-01-19T06:47:48.328Z,5.55
2024-01-19T06:51:18.918Z,4.23
2024-01-19T06:54:42.903Z,6.20
2024-01-19T06:58:08.751Z,5.87
2024-01-19T07:01:35.557Z,5.90
2024-01-19T07:04:59.606Z,5.57
2024-01-19T07:08:23.744Z,7.22
2024-01-19T07:11:47.220Z,6.32
2024-01-19T07:15:13.245Z,6.97
2024-01-19T07:18:38.374Z,6.30
2024-01-19T07:22:02.069Z,6.28
2024-01-19T07:25:25.960Z,7.18
2024-01-19T07:28:49.818Z,8.65
2024-01-19T07:32:14.832Z,8.50
2024-01-19T07:35:40.334Z,9.00
2024-01-19T07:39:05.157Z,8.25
2024-01-19T07:42:29.237Z,7.97
2024-01-19T07:45:53.190Z,8.27
2024-01-19T07:49:22.582Z,8.45
2024-01-19T07:52:45.969Z,9.05
2024-01-19T07:56:09.326Z,8.25
2024-01-19T07:59:32.510Z,7.47
2024-01-19T08:02:56.374Z,9.15
2024-01-19T08:06:22.527Z,7.70
2024-01-19T08:09:46.998Z,4.40
2024-01-19T08:13:12.083Z,4.80
2024-01-19T08:16:36.521Z,5.78
2024-01-19T08:20:00.939Z,5.82
2024-01-19T08:23:25.569Z,5.07
2024-01-19T08:26:49.640Z,5.23
2024-01-19T08:30:14.359Z,6.22
2024-01-19T08:33:39.945Z,4.87
2024-01-19T08:37:05.105Z,5.05
2024-01-19T08:40:31.471Z,4.97
2024-01-19T08:43:55.222Z,3.80
2024-01-19T08:47:20.399Z,4.37
2024-01-19T08:50:45.537Z,6.07
2024-01-19T08:54:09.334Z,4.85
2024-01-19T08:57:34.990Z,3.35
2024-01-19T09:00:58.987Z,4.40
2024-01-19T09:04:22.129Z,5.53
2024-01-19T09:07:45.757Z,2.92
2024-01-19T09:11:08.920Z,3.95
2024-01-19T09:14:33.752Z,3.83
2024-01-19T09:17:57.172Z,3.73
2024-01-19T09:21:20.581Z,5.00
2024-01-19T09:24:45.765Z,4.47
2024-01-19T09:28:10.163Z,7.50
2024-01-19T09:31:34.554Z,4.07
2024-01-19T09:34:58.035Z,5.57
2024-01-19T09:38:20.890Z,5.53
2024-01-19T09:41:48.911Z,9.40
2024-01-19T09:45:19.410Z,7.97
2024-01-19T09:48:46.783Z,8.85
2024-01-19T09:52:17.500Z,8.10
2024-01-19T09:55:40.868Z,6.30
2024-01-19T09:59:03.924Z,5.10
2024-01-19T10:02:27.029Z,5.78
2024-01-19T10:05:52.546Z,5.05
2024-01-19T10:09:16.089Z,7.07
2024-01-19T10:12:39.966Z,7.12
2024-01-19T10:16:02.715Z,5.72
2024-01-19T10:19:26.336Z,7.35
2024-01-19T10:22:50.677Z,5.30
2024-01-19T10:26:16.135Z,4.62
2024-01-19T10:29:39.756Z,5.28
2024-01-19T10:33:06.274Z,5.53
2024-01-19T10:36:38.204Z,5.22
2024-01-19T10:40:18.940Z,7.03
2024-01-19T10:43:42.269Z,4.80
2024-01-19T10:47:08.016Z,5.13
2024-01-19T10:50:33.099Z,5.03
2024-01-19T10:53:59.053Z,4.60
2024-01-19T10:57:24.725Z,5.43
2024-01-19T11:00:49.230Z,4.73
2024-01-19T11:04:14.848Z,5.22
2024-01-19T11:07:39.029Z,4.37
2024-01-19T11:11:02.625Z,4.50
2024-01-19T11:14:29.503Z,4.10
2024-01-19T11:17:53.447Z,5.03
2024-01-19T11:21:17.691Z,5.20
2024-01-19T11:24:42.042Z,3.58
2024-01-19T11:28:11.312Z,5.07
2024-01-19T11:31:37.366Z,5.78
2024-01-19T11:35:01.325Z,4.62
2024-01-19T11:38:47.797Z,3.57
2024-01-19T11:42:14.295Z,5.18
2024-01-19T11:45:44.055Z,5.30
2024-01-19T11:49:09.266Z,4.95
2024-01-19T11:52:39.839Z,4.33
2024-01-19T11:56:03.555Z,5.07
2024-01-19T11:59:26.769Z,4.80
2024-01-19T12:02:50.155Z,8.13
2024-01-19T12:06:17.567Z,5.28
2024-01-19T12:09:40.575Z,5.87
2024-01-19T12:13:04.033Z,4.43
2024-01-19T12:16:27.302Z,5.03
2024-01-19T12:19:54.041Z,4.90
2024-01-19T12:23:20.474Z,7.10
2024-01-19T12:26:52.329Z,4.73
2024-01-19T12:30:17.100Z,3.47
2024-01-19T12:33:40.713Z,4.15
2024-01-19T12:37:03.899Z,6.35
2024-01-19T12:40:29.137Z,5.95
2024-01-19T12:43:52.329Z,4.15
2024-01-19T12:47:16.281Z,4.75
2024-01-19T12:50:40.369Z,4.77
2024-01-19T12:54:04.504Z,5.35
2024-01-19T12:57:29.689Z,5.03
2024-01-19T13:00:53.734Z,5.18
2024-01-19T13:04:18.306Z,4.60
2024-01-19T13:07:42.203Z,5.32
2024-01-19T13:11:10.402Z,6.03
2024-01-19T13:14:37.097Z,4.85
2024-01-19T13:18:11.536Z,5.10
2024-01-19T13:21:36.147Z,4.90
2024-01-19T13:25:00.277Z,4.30
2024-01-19T13:28:24.419Z,3.97
2024-01-19T13:31:49.539Z,4.28
2024-01-19T13:35:13.799Z,4.55
2024-01-19T13:38:37.491Z,4.85
2024-01-19T13:42:01.522Z,6.13
2024-01-19T13:45:25.373Z,5.70
2024-01-19T13:48:51.246Z,7.22
2024-01-19T13:52:15.110Z,8.27
2024-01-19T13:55:39.220Z,8.30
2024-01-19T13:59:02.730Z,5.22
2024-01-19T14:02:28.060Z,5.55
2024-01-19T14:05:53.739Z,7.67
2024-01-19T14:09:17.951Z,6.45
2024-01-19T14:12:41.656Z,8.32
2024-01-19T14:16:06.345Z,6.68
2024-01-19T14:19:30.161Z,7.17
2024-01-19T14:22:55.292Z,11.38
2024-01-19T14:26:21.746Z,11.23
2024-01-19T14:29:47.405Z,18.02
2024-01-19T14:33:11.737Z,13.70
2024-01-19T14:36:35.483Z,9.88
2024-01-19T14:40:01.195Z,9.85
2024-01-19T14:43:24.762Z,8.68
2024-01-19T14:46:50.204Z,6.70
2024-01-19T14:50:14.792Z,6.97
2024-01-19T14:53:39.515Z,7.87
2024-01-19T14:57:04.960Z,9.33
2024-01-19T15:00:28.864Z,9.73
2024-01-19T15:03:52.564Z,11.48
2024-01-19T15:07:18.392Z,6.43
2024-01-19T15:10:42.176Z,6.00
2024-01-19T15:14:07.699Z,7.95
2024-01-19T15:17:31.440Z,4.95
2024-01-19T15:20:55.330Z,8.65
2024-01-19T15:24:19.105Z,8.80
2024-01-19T15:27:43.097Z,8.27
2024-01-19T15:31:07.747Z,7.45
2024-01-19T15:34:31.769Z,7.70
2024-01-19T15:37:55.371Z,7.53
2024-01-19T15:41:25.580Z,7.00
2024-01-19T15:44:49.335Z,8.52
2024-01-19T15:48:14.727Z,8.20
2024-01-19T15:51:38.285Z,9.63
2024-01-19T15:55:02.381Z,9.20
2024-01-19T15:58:25.621Z,9.90
2024-01-19T16:01:50.041Z,11.00
2024-01-19T16:05:16.445Z,13.60
2024-01-19T16:08:40.295Z,12.90
2024-01-19T16:12:05.429Z,13.05
2024-01-19T16:15:28.842Z,11.05
2024-01-19T16:18:53.106Z,12.57
2024-01-19T16:22:18.491Z,13.30
2024-01-19T16:25:42.470Z,13.10
2024-01-19T16:29:06.281Z,16.55
2024-01-19T16:32:30.170Z,17.62
2024-01-19T16:35:55.910Z,18.20
2024-01-19T16:39:21.610Z,18.03
2024-01-19T16:42:45.307Z,18.50
2024-01-19T16:46:08.793Z,15.25
2024-01-19T16:49:32.367Z,14.68
2024-01-19T16:52:56.444Z,12.10
2024-01-19T16:56:21.664Z,12.27
2024-01-19T16:59:45.564Z,12.05
2024-01-19T17:03:12.255Z,11.33
2024-01-19T17:06:36.398Z,13.15
2024-01-19T17:10:00.058Z,14.00
2024-01-19T17:13:25.391Z,16.73
2024-01-19T17:16:49.397Z,15.63
2024-01-19T17:20:14.288Z,19.48
2024-01-19T17:23:39.005Z,18.25
2024-01-19T17:27:03.743Z,17.20
2024-01-19T17:30:28.972Z,16.33
2024-01-19T17:34:02.382Z,20.45
2024-01-19T17:37:32.341Z,24.92
2024-01-19T17:40:56.449Z,18.40
2024-01-19T17:44:20.291Z,18.17
2024-01-19T17:47:46.347Z,14.73
2024-01-19T17:51:10.690Z,12.60
2024-01-19T17:54:34.889Z,11.02
2024-01-19T17:57:58.976Z,12.30
2024-01-19T18:01:23.863Z,10.57
2024-01-19T18:04:50.181Z,21.23
2024-01-19T18:08:13.834Z,19.20
2024-01-19T18:11:38.661Z,11.90
2024-01-19T18:15:02.438Z,9.90
2024-01-19T18:18:31.701Z,11.27
2024-01-19T18:22:01.253Z,8.63
2024-01-19T18:25:25.752Z,12.60
2024-01-19T18:28:49.448Z,9.23
2024-01-19T18:32:14.404Z,9.17
2024-01-19T18:35:39.597Z,8.77
2024-01-19T18:39:05.347Z,8.30
2024-01-19T18:42:28.954Z,8.52
2024-01-19T18:45:52.912Z,8.43
2024-01-19T18:49:16.717Z,8.10
2024-01-19T18:52:40.847Z,9.55
2024-01-19T18:56:09.034Z,12.07
2024-01-19T18:59:33.592Z,10.52
2024-01-19T19:02:57.282Z,8.65
2024-01-19T19:06:22.630Z,12.27
2024-01-19T19:09:46.555Z,15.47
2024-01-19T19:13:12.719Z,10.98
2024-01-19T19:16:44.725Z,7.90
2024-01-19T19:20:12.016Z,5.15
2024-01-19T19:23:35.406Z,4.27
2024-01-19T19:26:59.284Z,4.65
2024-01-19T19:30:25.394Z,5.32
2024-01-19T19:33:49.450Z,4.15
2024-01-19T19:37:12.940Z,6.43
2024-01-19T19:40:36.568Z,6.25
2024-01-19T19:44:00.137Z,7.82
2024-01-19T19:47:25.936Z,5.50
2024-01-19T19:50:49.620Z,5.83
2024-01-19T19:54:13.951Z,4.78
2024-01-19T19:57:39.114Z,4.07
2024-01-19T20:01:03.289Z,3.87
2024-01-19T20:04:29.509Z,4.33
2024-01-19T20:07:52.971Z,3.87
2024-01-19T20:11:17.088Z,3.53
2024-01-19T20:14:40.611Z,3.80
2024-01-19T20:18:05.005Z,2.97
2024-01-19T20:21:30.046Z,4.05
2024-01-19T20:24:54.420Z,2.80
2024-01-19T20:28:17.897Z,2.83
2024-01-19T20:31:42.035Z,3.75
2024-01-19T20:35:07.476Z,3.10
2024-01-19T20:38:33.577Z,2.58
2024-01-19T20:41:57.674Z,3.33
2024-01-19T20:45:21.770Z,4.57
2024-01-19T20:48:45.195Z,4.80
2024-01-19T20:52:09.291Z,3.33
2024-01-19T20:55:34.868Z,2.37
2024-01-19T20:59:00.885Z,3.90
2024-01-19T21:02:25.082Z,3.30
2024-01-19T21:05:49.592Z,3.80
2024-01-19T21:09:13.199Z,3.43
2024-01-19T21:12:41.294Z,4.53
2024-01-19T21:16:07.673Z,5.12
2024-01-19T21:19:32.134Z,6.35
2024-01-19T21:22:55.949Z,6.43
2024-01-19T21:26:25.257Z,7.45
2024-01-19T21:29:50.900Z,7.10
2024-01-19T21:33:15.293Z,8.52
2024-01-19T21:36:40.270Z,7.90
2024-01-19T21:40:05.898Z,9.60
2024-01-19T21:43:29.573Z,9.00
2024-01-19T21:46:55.312Z,8.43
2024-01-19T21:50:19.355Z,8.40
2024-01-19T21:53:45.426Z,8.43
2024-01-19T21:57:09.264Z,8.18
2024-01-19T22:00:33.601Z,8.13
2024-01-19T22:03:59.012Z,8.23
2024-01-19T22:07:22.913Z,9.60
2024-01-19T22:10:47.226Z,7.77
2024-01-19T22:14:11.093Z,7.72
2024-01-19T22:17:35.144Z,8.10
2024-01-19T22:21:00.161Z,7.47
2024-01-19T22:24:24.536Z,6.47
2024-01-19T22:27:48.229Z,6.37
2024-01-19T22:31:12.982Z,4.95
2024-01-19T22:34:36.772Z,3.20
2024-01-19T22:38:02.790Z,2.70
2024-01-19T22:41:26.213Z,2.80
2024-01-19T22:44:50.294Z,5.03
2024-01-19T22:48:14.173Z,3.87
2024-01-19T22:51:38.091Z,4.93
2024-01-19T22:55:03.876Z,5.72
2024-01-19T22:58:28.219Z,8.43
2024-01-19T23:01:52.193Z,6.40
2024-01-19T23:05:16.485Z,5.17
2024-01-19T23:08:39.896Z,3.10
2024-01-19T23:12:05.883Z,3.95
2024-01-19T23:15:29.506Z,2.12
2024-01-19T23:18:55.228Z,4.57
2024-01-19T23:22:21.134Z,6.62
2024-01-19T23:25:46.477Z,3.42
2024-01-19T23:29:11.622Z,2.17
2024-01-19T23:32:35.598Z,3.03
2024-01-19T23:35:59.577Z,2.47
2024-01-19T23:39:23.814Z,2.37
2024-01-19T23:42:47.821Z,1.97
2024-01-19T23:46:13.115Z,2.53
2024-01-19T23:49:36.398Z,3.15
2024-01-19T23:53:00.429Z,3.25
2024-01-19T23:56:24.229Z,1.87
2024-01-19T23:59:49.581Z,1.87
